createdAt,value
2019-03-21T00:02:20.818Z,6.62
2019-03-21T00:04:52.635Z,7.92
2019-03-21T00:07:24.233Z,6.77
2019-03-21T00:10:32.524Z,6.78
2019-03-21T00:13:04.116Z,5.22
2019-03-21T00:15:52.475Z,6.70
2019-03-21T00:18:24.137Z,6.75
2019-03-21T00:20:55.748Z,6.33
2019-03-21T00:23:27.341Z,7.12
2019-03-21T00:25:58.908Z,6.12
2019-03-21T00:28:30.493Z,5.20
2019-03-21T00:31:02.085Z,5.87
2019-03-21T00:33:35.150Z,6.17
2019-03-21T00:36:06.813Z,7.65
2019-03-21T00:38:38.384Z,6.08
2019-03-21T00:41:09.983Z,6.97
2019-03-21T00:43:41.573Z,5.50
2019-03-21T00:46:13.157Z,6.10
2019-03-21T00:48:44.747Z,7.05
2019-03-21T00:51:16.246Z,6.42
2019-03-21T00:53:47.827Z,6.17
2019-03-21T00:56:19.367Z,7.20
2019-03-21T00:58:50.877Z,6.80
2019-03-21T01:01:22.411Z,6.70
2019-03-21T01:03:54.000Z,6.12
2019-03-21T01:06:26.574Z,6.53
2019-03-21T01:08:58.077Z,6.97
2019-03-21T01:11:29.592Z,6.47
2019-03-21T01:14:01.273Z,7.90
2019-03-21T01:16:32.791Z,6.53
2019-03-21T01:19:04.462Z,6.90
2019-03-21T01:21:36.142Z,6.92
2019-03-21T01:24:07.711Z,7.05
2019-03-21T01:26:39.199Z,6.58
2019-03-21T01:29:10.696Z,6.65
2019-03-21T01:31:42.350Z,6.35
2019-03-21T01:34:13.902Z,5.93
2019-03-21T01:36:45.424Z,6.08
2019-03-21T01:39:16.917Z,5.72
2019-03-21T01:41:48.413Z,6.85
2019-03-21T01:44:19.975Z,6.62
2019-03-21T01:46:51.483Z,8.40
2019-03-21T01:49:24.069Z,7.20
2019-03-21T01:51:56.659Z,6.37
2019-03-21T01:54:28.185Z,6.12
2019-03-21T01:56:59.751Z,6.67
2019-03-21T01:59:31.264Z,6.37
2019-03-21T02:02:02.849Z,7.58
2019-03-21T02:04:34.431Z,7.35
2019-03-21T02:07:06.033Z,7.15
2019-03-21T02:09:37.522Z,5.90
2019-03-21T02:12:09.038Z,7.53
2019-03-21T02:14:51.612Z,7.00
2019-03-21T02:17:13.842Z,6.57
2019-03-21T02:19:45.366Z,5.90
2019-03-21T02:22:16.947Z,7.33
2019-03-21T02:24:48.628Z,6.85
2019-03-21T02:27:20.196Z,8.38
2019-03-21T02:29:51.774Z,7.33
2019-03-21T02:32:23.290Z,7.25
2019-03-21T02:34:54.881Z,7.05
2019-03-21T02:37:26.404Z,7.92
2019-03-21T02:39:59.932Z,7.65
2019-03-21T02:42:31.251Z,6.55
2019-03-21T02:45:09.035Z,8.28
2019-03-21T02:47:37.069Z,7.20
2019-03-21T02:50:20.997Z,8.20
2019-03-21T02:52:52.498Z,6.70
2019-03-21T02:55:25.293Z,6.70
2019-03-21T02:57:56.865Z,6.83
2019-03-21T03:00:35.335Z,7.30
2019-03-21T03:03:09.131Z,6.70
2019-03-21T03:05:40.632Z,7.45
2019-03-21T03:08:12.197Z,7.08
2019-03-21T03:10:53.906Z,7.72
2019-03-21T03:13:25.900Z,6.92
2019-03-21T03:15:57.503Z,7.62
2019-03-21T03:18:28.978Z,7.30
2019-03-21T03:21:00.491Z,7.22
2019-03-21T03:23:32.058Z,8.60
2019-03-21T03:26:03.663Z,6.45
2019-03-21T03:28:42.709Z,8.23
2019-03-21T03:31:14.218Z,7.33
2019-03-21T03:33:46.070Z,6.67
2019-03-21T03:36:17.806Z,6.10
2019-03-21T03:38:49.316Z,6.58
2019-03-21T03:41:22.378Z,6.87
2019-03-21T03:43:53.917Z,6.55
2019-03-21T03:46:25.441Z,7.30
2019-03-21T03:48:56.960Z,7.47
2019-03-21T03:51:28.504Z,7.45
2019-03-21T03:54:00.090Z,7.55
2019-03-21T03:56:31.603Z,6.17
2019-03-21T03:59:09.423Z,9.13
2019-03-21T04:01:39.977Z,7.70
2019-03-21T04:04:11.474Z,7.28
2019-03-21T04:06:42.992Z,8.28
2019-03-21T04:09:14.517Z,6.90
2019-03-21T04:11:46.022Z,8.25
2019-03-21T04:14:17.545Z,7.95
2019-03-21T04:16:49.083Z,7.47
2019-03-21T04:19:20.652Z,7.90
2019-03-21T04:21:52.175Z,7.95
2019-03-21T04:24:23.756Z,7.65
2019-03-21T04:26:55.273Z,9.13
2019-03-21T04:29:26.846Z,8.40
2019-03-21T04:31:58.434Z,10.23
2019-03-21T04:34:29.940Z,6.62
2019-03-21T04:37:01.577Z,7.30
2019-03-21T04:39:33.108Z,8.65
2019-03-21T04:42:04.746Z,9.13
2019-03-21T04:44:36.335Z,8.88
2019-03-21T04:47:07.857Z,8.20
2019-03-21T04:49:39.445Z,9.05
2019-03-21T04:52:10.967Z,8.13
2019-03-21T04:54:42.494Z,9.90
2019-03-21T04:57:14.056Z,9.33
2019-03-21T04:59:45.636Z,6.85
2019-03-21T05:02:17.305Z,9.15
2019-03-21T05:04:48.910Z,7.58
2019-03-21T05:07:20.405Z,8.73
2019-03-21T05:09:51.990Z,9.53
2019-03-21T05:12:23.500Z,9.25
2019-03-21T05:14:55.010Z,8.98
2019-03-21T05:17:26.533Z,9.03
2019-03-21T05:19:58.025Z,10.10
2019-03-21T05:22:32.246Z,8.80
2019-03-21T05:25:04.757Z,9.48
2019-03-21T05:27:36.292Z,9.83
2019-03-21T05:30:30.689Z,9.23
2019-03-21T05:33:02.177Z,9.43
2019-03-21T05:35:33.702Z,10.08
2019-03-21T05:38:06.466Z,11.63
2019-03-21T05:40:38.139Z,9.73
2019-03-21T05:43:29.071Z,10.78
2019-03-21T05:46:02.196Z,8.95
2019-03-21T05:48:33.712Z,9.13
2019-03-21T05:51:05.340Z,9.65
2019-03-21T05:53:36.856Z,9.98
2019-03-21T05:56:09.007Z,10.45
2019-03-21T05:58:40.641Z,8.70
2019-03-21T06:01:13.497Z,10.20
2019-03-21T06:03:52.853Z,10.45
2019-03-21T06:06:38.618Z,10.93
2019-03-21T06:09:15.408Z,10.23
2019-03-21T06:11:54.615Z,9.83
2019-03-21T06:14:26.492Z,9.60
2019-03-21T06:16:58.278Z,11.38
2019-03-21T06:19:34.685Z,11.63
2019-03-21T06:22:25.867Z,12.05
2019-03-21T06:25:21.779Z,10.90
2019-03-21T06:27:53.322Z,13.38
2019-03-21T06:30:24.848Z,11.53
2019-03-21T06:32:56.529Z,12.55
2019-03-21T06:35:28.072Z,13.10
2019-03-21T06:37:59.650Z,12.28
2019-03-21T06:40:32.755Z,12.70
2019-03-21T06:43:04.328Z,13.40
2019-03-21T06:45:47.346Z,12.13
2019-03-21T06:48:09.156Z,10.95
2019-03-21T06:50:40.700Z,12.53
2019-03-21T06:53:12.210Z,10.95
2019-03-21T06:55:43.734Z,11.83
2019-03-21T06:58:15.254Z,12.10
2019-03-21T07:00:46.774Z,12.00
2019-03-21T07:03:18.644Z,13.35
2019-03-21T07:05:50.393Z,13.40
2019-03-21T07:08:22.038Z,15.18
2019-03-21T07:10:53.563Z,12.20
2019-03-21T07:13:25.105Z,15.03
2019-03-21T07:15:56.661Z,13.18
2019-03-21T07:18:28.162Z,13.88
2019-03-21T07:21:01.161Z,11.80
2019-03-21T07:23:32.880Z,13.90
2019-03-21T07:26:06.823Z,14.40
2019-03-21T07:28:39.547Z,14.93
2019-03-21T07:31:11.467Z,15.32
2019-03-21T07:33:43.058Z,14.28
2019-03-21T07:36:14.657Z,16.12
2019-03-21T07:38:46.231Z,14.43
2019-03-21T07:41:17.761Z,16.50
2019-03-21T07:43:49.282Z,15.63
2019-03-21T07:46:20.936Z,15.38
2019-03-21T07:48:52.453Z,14.95
2019-03-21T07:51:24.001Z,15.25
2019-03-21T07:53:55.518Z,16.70
2019-03-21T07:56:27.042Z,17.48
2019-03-21T07:58:58.550Z,16.95
2019-03-21T08:01:30.069Z,16.37
2019-03-21T08:04:02.989Z,15.95
2019-03-21T08:06:34.856Z,15.28
2019-03-21T08:09:08.086Z,15.15
2019-03-21T08:11:41.088Z,17.02
2019-03-21T08:14:12.652Z,17.25
2019-03-21T08:16:44.174Z,14.13
2019-03-21T08:19:15.775Z,16.93
2019-03-21T08:21:47.278Z,17.35
2019-03-21T08:24:18.784Z,17.40
2019-03-21T08:26:50.310Z,17.02
2019-03-21T08:29:21.830Z,17.77
2019-03-21T08:31:53.348Z,15.43
2019-03-21T08:34:24.871Z,16.73
2019-03-21T08:36:56.378Z,17.07
2019-03-21T08:39:27.901Z,17.07
2019-03-21T08:41:59.494Z,16.60
2019-03-21T08:44:31.018Z,17.12
2019-03-21T08:47:02.543Z,15.03
2019-03-21T08:49:34.141Z,17.17
2019-03-21T08:52:06.732Z,15.63
2019-03-21T08:54:39.334Z,15.98
2019-03-21T08:57:10.845Z,14.33
2019-03-21T08:59:42.367Z,15.43
2019-03-21T09:02:13.890Z,16.97
2019-03-21T09:04:45.556Z,15.72
2019-03-21T09:07:17.162Z,16.93
2019-03-21T09:09:48.748Z,17.07
2019-03-21T09:12:20.257Z,15.78
2019-03-21T09:14:51.851Z,16.80
2019-03-21T09:17:23.455Z,15.93
2019-03-21T09:19:54.968Z,16.00
2019-03-21T09:22:27.486Z,15.63
2019-03-21T09:24:59.082Z,14.25
2019-03-21T09:27:32.415Z,14.10
2019-03-21T09:30:06.709Z,14.58
2019-03-21T09:32:38.310Z,14.28
2019-03-21T09:35:12.373Z,12.88
2019-03-21T09:37:43.038Z,15.28
2019-03-21T09:40:14.555Z,15.48
2019-03-21T09:42:46.060Z,14.95
2019-03-21T09:45:17.659Z,13.60
2019-03-21T09:47:52.499Z,16.37
2019-03-21T09:50:29.613Z,15.58
2019-03-21T09:53:01.145Z,13.55
2019-03-21T09:55:32.711Z,13.72
2019-03-21T09:58:04.219Z,14.70
2019-03-21T10:00:38.635Z,13.05
2019-03-21T10:03:10.627Z,14.93
2019-03-21T10:05:42.296Z,12.20
2019-03-21T10:08:13.830Z,14.25
2019-03-21T10:10:45.426Z,15.20
2019-03-21T10:13:16.951Z,13.32
2019-03-21T10:15:48.464Z,15.90
2019-03-21T10:18:19.983Z,17.00
2019-03-21T10:20:51.594Z,15.23
2019-03-21T10:23:23.120Z,13.85
2019-03-21T10:25:55.706Z,13.32
2019-03-21T10:28:27.203Z,13.15
2019-03-21T10:30:58.841Z,13.83
2019-03-21T10:33:30.434Z,13.20
2019-03-21T10:36:01.961Z,13.62
2019-03-21T10:38:33.544Z,13.35
2019-03-21T10:41:05.055Z,12.00
2019-03-21T10:43:36.580Z,12.43
2019-03-21T10:46:08.105Z,13.00
2019-03-21T10:48:39.706Z,11.57
2019-03-21T10:51:11.446Z,11.33
2019-03-21T10:53:42.967Z,11.08
2019-03-21T10:56:17.734Z,9.45
2019-03-21T10:58:54.815Z,9.38
2019-03-21T11:01:26.309Z,8.08
2019-03-21T11:03:57.815Z,10.18
2019-03-21T11:06:29.485Z,10.80
2019-03-21T11:09:07.007Z,10.93
2019-03-21T11:11:38.536Z,10.60
2019-03-21T11:14:12.535Z,11.28
2019-03-21T11:16:47.028Z,9.65
2019-03-21T11:19:18.536Z,11.33
2019-03-21T11:21:50.784Z,11.90
2019-03-21T11:24:22.858Z,10.58
2019-03-21T11:26:56.098Z,10.35
2019-03-21T11:29:27.567Z,8.73
2019-03-21T11:31:59.065Z,9.40
2019-03-21T11:34:30.564Z,9.95
2019-03-21T11:37:02.333Z,10.88
2019-03-21T11:39:34.083Z,10.28
2019-03-21T11:42:06.813Z,9.10
2019-03-21T11:44:38.338Z,9.15
2019-03-21T11:47:09.921Z,7.45
2019-03-21T11:49:41.546Z,8.65
2019-03-21T11:52:18.229Z,8.33
2019-03-21T11:54:46.430Z,9.38
2019-03-21T11:57:18.012Z,7.40
2019-03-21T11:59:51.984Z,8.73
2019-03-21T12:02:27.476Z,8.10
2019-03-21T12:04:56.165Z,6.58
2019-03-21T12:07:27.757Z,8.38
2019-03-21T12:09:59.360Z,9.83
2019-03-21T12:12:31.132Z,8.18
2019-03-21T12:15:02.734Z,8.43
2019-03-21T12:17:34.434Z,8.28
2019-03-21T12:20:29.953Z,10.13
2019-03-21T12:23:02.097Z,8.13
2019-03-21T12:25:33.667Z,10.43
2019-03-21T12:28:05.172Z,9.88
2019-03-21T12:30:38.887Z,9.25
2019-03-21T12:33:10.438Z,8.80
2019-03-21T12:35:43.539Z,10.20
2019-03-21T12:38:15.063Z,10.40
2019-03-21T12:40:46.571Z,11.33
2019-03-21T12:43:18.664Z,10.72
2019-03-21T12:45:50.255Z,11.12
2019-03-21T12:48:22.343Z,12.00
2019-03-21T12:50:53.884Z,11.80
2019-03-21T12:53:25.477Z,11.55
2019-03-21T12:55:57.034Z,9.18
2019-03-21T12:58:28.565Z,9.78
2019-03-21T13:01:00.194Z,9.15
2019-03-21T13:03:34.205Z,10.43
2019-03-21T13:06:07.438Z,9.58
2019-03-21T13:08:38.943Z,11.10
2019-03-21T13:11:10.504Z,12.13
2019-03-21T13:13:43.615Z,11.85
2019-03-21T13:16:15.116Z,12.43
2019-03-21T13:18:46.686Z,12.00
2019-03-21T13:21:18.379Z,9.00
2019-03-21T13:23:50.053Z,9.93
2019-03-21T13:26:21.573Z,8.80
2019-03-21T13:28:53.091Z,9.60
2019-03-21T13:31:24.611Z,8.48
2019-03-21T13:33:56.226Z,9.65
2019-03-21T13:36:27.741Z,10.53
2019-03-21T13:38:59.265Z,10.20
2019-03-21T13:41:30.785Z,10.28
2019-03-21T13:44:03.421Z,10.63
2019-03-21T13:46:34.944Z,9.43
2019-03-21T13:49:06.513Z,10.70
2019-03-21T13:51:38.038Z,9.13
2019-03-21T13:54:09.648Z,10.05
2019-03-21T13:56:41.249Z,10.23
2019-03-21T13:59:12.765Z,9.68
2019-03-21T14:01:44.281Z,9.65
2019-03-21T14:04:15.783Z,10.50
2019-03-21T14:06:47.303Z,8.68
2019-03-21T14:09:20.359Z,9.08
2019-03-21T14:11:51.957Z,8.23
2019-03-21T14:14:23.483Z,9.35
2019-03-21T14:16:56.091Z,8.45
2019-03-21T14:19:27.601Z,9.68
2019-03-21T14:21:59.146Z,10.05
2019-03-21T14:24:36.306Z,8.28
2019-03-21T14:27:03.939Z,10.30
2019-03-21T14:29:35.463Z,9.88
2019-03-21T14:32:06.980Z,9.83
2019-03-21T14:34:38.505Z,9.90
2019-03-21T14:37:10.022Z,8.45
2019-03-21T14:39:41.545Z,9.55
2019-03-21T14:42:13.062Z,9.68
2019-03-21T14:44:44.668Z,10.00
2019-03-21T14:47:16.192Z,9.48
2019-03-21T14:49:47.758Z,10.58
2019-03-21T14:52:19.260Z,11.20
2019-03-21T14:54:50.904Z,11.00
2019-03-21T14:57:22.420Z,9.08
2019-03-21T14:59:53.943Z,11.05
2019-03-21T15:02:25.552Z,10.50
2019-03-21T15:04:57.075Z,10.75
2019-03-21T15:07:28.596Z,9.88
2019-03-21T15:10:00.373Z,11.53
2019-03-21T15:12:32.037Z,12.47
2019-03-21T15:15:05.401Z,8.90
2019-03-21T15:17:36.977Z,10.88
2019-03-21T15:20:12.196Z,9.18
2019-03-21T15:22:43.852Z,8.95
2019-03-21T15:25:15.372Z,9.40
2019-03-21T15:27:46.890Z,9.45
2019-03-21T15:30:20.190Z,8.18
2019-03-21T15:32:51.894Z,8.38
2019-03-21T15:35:25.144Z,9.50
2019-03-21T15:37:56.764Z,9.08
2019-03-21T15:40:28.387Z,9.88
2019-03-21T15:42:59.918Z,9.65
2019-03-21T15:45:31.603Z,9.78
2019-03-21T15:48:03.116Z,10.90
2019-03-21T15:50:40.105Z,10.48
2019-03-21T15:53:22.172Z,10.48
2019-03-21T15:55:52.884Z,10.75
2019-03-21T15:58:26.121Z,11.63
2019-03-21T16:00:59.183Z,10.28
2019-03-21T16:03:35.758Z,12.28
2019-03-21T16:06:08.658Z,10.63
2019-03-21T16:08:40.218Z,10.40
2019-03-21T16:11:20.750Z,11.90
2019-03-21T16:13:52.276Z,11.20
2019-03-21T16:16:23.941Z,13.32
2019-03-21T16:18:55.482Z,10.65
2019-03-21T16:21:36.691Z,14.03
2019-03-21T16:24:12.148Z,12.10
2019-03-21T16:26:43.674Z,13.13
2019-03-21T16:29:15.274Z,13.95
2019-03-21T16:31:49.147Z,13.78
2019-03-21T16:34:20.788Z,13.43
2019-03-21T16:36:52.626Z,13.22
2019-03-21T16:40:43.602Z,14.47
2019-03-21T16:42:37.120Z,12.75
2019-03-21T16:45:11.418Z,13.62
2019-03-21T16:47:45.905Z,14.58
2019-03-21T16:50:17.478Z,14.53
2019-03-21T16:52:49.022Z,14.07
2019-03-21T16:55:20.865Z,14.78
2019-03-21T16:57:56.275Z,13.60
2019-03-21T17:00:27.870Z,13.93
2019-03-21T17:02:59.464Z,15.32
2019-03-21T17:05:30.987Z,14.50
2019-03-21T17:08:11.037Z,13.68
2019-03-21T17:10:36.036Z,13.30
2019-03-21T17:13:08.752Z,12.60
2019-03-21T17:15:40.519Z,13.78
2019-03-21T17:18:12.159Z,16.55
2019-03-21T17:20:43.678Z,14.58
2019-03-21T17:23:15.257Z,13.95
2019-03-21T17:25:46.851Z,15.25
2019-03-21T17:28:18.477Z,14.33
2019-03-21T17:30:51.068Z,13.38
2019-03-21T17:33:22.568Z,13.72
2019-03-21T17:35:54.097Z,15.00
2019-03-21T17:38:25.743Z,15.30
2019-03-21T17:40:58.885Z,15.65
2019-03-21T17:43:30.391Z,15.32
2019-03-21T17:46:01.987Z,15.75
2019-03-21T17:48:33.586Z,12.10
2019-03-21T17:51:05.104Z,15.85
2019-03-21T17:53:36.611Z,15.18
2019-03-21T17:56:08.130Z,14.73
2019-03-21T17:58:39.689Z,15.32
2019-03-21T18:01:11.211Z,16.30
2019-03-21T18:03:42.735Z,14.75
2019-03-21T18:06:14.261Z,13.90
2019-03-21T18:08:45.858Z,14.98
2019-03-21T18:11:17.386Z,14.58
2019-03-21T18:13:48.982Z,14.60
2019-03-21T18:16:20.508Z,14.23
2019-03-21T18:18:52.014Z,15.20
2019-03-21T18:21:23.667Z,15.00
2019-03-21T18:23:55.193Z,14.80
2019-03-21T18:26:26.777Z,15.72
2019-03-21T18:28:58.314Z,16.75
2019-03-21T18:31:29.845Z,15.35
2019-03-21T18:34:01.347Z,16.77
2019-03-21T18:36:32.871Z,14.05
2019-03-21T18:39:06.902Z,16.65
2019-03-21T18:41:38.508Z,16.80
2019-03-21T18:44:10.116Z,15.08
2019-03-21T18:46:41.689Z,16.57
2019-03-21T18:49:13.217Z,16.20
2019-03-21T18:51:44.733Z,14.23
2019-03-21T18:54:16.259Z,14.38
2019-03-21T18:56:47.767Z,16.17
2019-03-21T18:59:19.302Z,16.80
2019-03-21T19:01:58.430Z,16.50
2019-03-21T19:04:24.191Z,16.90
2019-03-21T19:06:55.796Z,15.05
2019-03-21T19:09:27.325Z,14.18
2019-03-21T19:11:58.850Z,16.62
2019-03-21T19:14:30.381Z,14.38
2019-03-21T19:17:01.949Z,17.65
2019-03-21T19:19:33.472Z,14.55
2019-03-21T19:22:05.038Z,17.67
2019-03-21T19:24:36.551Z,14.63
2019-03-21T19:27:08.076Z,17.23
2019-03-21T19:29:39.705Z,17.57
2019-03-21T19:32:11.220Z,16.55
2019-03-21T19:34:42.755Z,14.47
2019-03-21T19:37:14.413Z,19.10
2019-03-21T19:39:45.942Z,15.98
2019-03-21T19:42:17.546Z,16.50
2019-03-21T19:44:49.215Z,15.55
2019-03-21T19:47:25.734Z,16.30
2019-03-21T19:49:54.053Z,16.52
2019-03-21T19:52:25.548Z,14.15
2019-03-21T19:54:57.179Z,17.75
2019-03-21T19:57:28.788Z,17.82
2019-03-21T20:00:00.395Z,17.80
2019-03-21T20:02:32.016Z,14.03
2019-03-21T20:05:04.209Z,16.00
2019-03-21T20:07:35.802Z,16.37
2019-03-21T20:10:09.505Z,19.42
2019-03-21T20:12:41.187Z,16.97
2019-03-21T20:15:14.903Z,18.07
2019-03-21T20:17:46.711Z,20.43
2019-03-21T20:20:19.126Z,17.02
2019-03-21T20:22:51.160Z,16.17
2019-03-21T20:25:22.786Z,17.80
2019-03-21T20:27:54.420Z,18.50
2019-03-21T20:30:26.020Z,17.45
2019-03-21T20:32:57.554Z,17.57
2019-03-21T20:35:29.114Z,14.85
2019-03-21T20:38:00.712Z,18.25
2019-03-21T20:40:32.313Z,17.65
2019-03-21T20:43:03.836Z,17.37
2019-03-21T20:45:35.400Z,18.50
2019-03-21T20:48:06.998Z,20.00
2019-03-21T20:50:38.594Z,18.92
2019-03-21T20:53:10.191Z,20.70
2019-03-21T20:55:41.758Z,19.12
2019-03-21T20:58:13.308Z,18.82
2019-03-21T21:00:44.829Z,19.32
2019-03-21T21:03:17.432Z,18.00
2019-03-21T21:05:50.556Z,19.32
2019-03-21T21:08:22.153Z,19.62
2019-03-21T21:10:53.683Z,19.67
2019-03-21T21:13:25.262Z,18.73
2019-03-21T21:15:56.789Z,19.92
2019-03-21T21:18:28.291Z,17.98
2019-03-21T21:20:59.902Z,20.37
2019-03-21T21:23:31.428Z,18.25
2019-03-21T21:26:05.647Z,20.25
2019-03-21T21:28:36.182Z,18.00
2019-03-21T21:31:07.767Z,19.98
2019-03-21T21:33:39.432Z,20.50
2019-03-21T21:36:21.601Z,19.05
2019-03-21T21:38:44.237Z,21.30
2019-03-21T21:41:16.826Z,21.35
2019-03-21T21:43:48.344Z,20.60
2019-03-21T21:46:20.017Z,16.05
2019-03-21T21:48:53.654Z,19.92
2019-03-21T21:51:27.349Z,17.40
2019-03-21T21:53:58.850Z,20.20
2019-03-21T21:56:30.390Z,18.52
2019-03-21T21:59:01.985Z,18.75
2019-03-21T22:01:33.515Z,17.92
2019-03-21T22:04:06.147Z,17.17
2019-03-21T22:06:37.619Z,19.85
2019-03-21T22:09:09.221Z,17.07
2019-03-21T22:11:40.770Z,17.02
2019-03-21T22:14:12.271Z,20.23
2019-03-21T22:16:43.805Z,18.98
2019-03-21T22:19:15.332Z,18.45
2019-03-21T22:21:46.834Z,17.52
2019-03-21T22:24:18.391Z,17.92
2019-03-21T22:26:49.906Z,19.00
2019-03-21T22:29:21.436Z,16.77
2019-03-21T22:31:53.036Z,16.65
2019-03-21T22:34:24.556Z,17.82
2019-03-21T22:36:56.056Z,17.42
2019-03-21T22:39:27.580Z,18.87
2019-03-21T22:41:59.086Z,19.82
2019-03-21T22:44:30.587Z,15.83
2019-03-21T22:47:02.163Z,17.40
2019-03-21T22:49:33.683Z,16.97
2019-03-21T22:52:05.228Z,16.55
2019-03-21T22:54:36.740Z,19.90
2019-03-21T22:57:08.304Z,16.55
2019-03-21T22:59:40.108Z,17.10
2019-03-21T23:02:13.406Z,18.35
2019-03-21T23:04:45.062Z,16.73
2019-03-21T23:07:16.651Z,19.25
2019-03-21T23:09:48.177Z,16.97
2019-03-21T23:12:19.707Z,16.75
2019-03-21T23:14:51.237Z,16.95
2019-03-21T23:17:22.829Z,15.98
2019-03-21T23:19:54.440Z,20.52
2019-03-21T23:22:26.061Z,17.95
2019-03-21T23:24:57.562Z,17.42
2019-03-21T23:27:29.168Z,18.35
2019-03-21T23:30:00.897Z,21.15
2019-03-21T23:32:32.466Z,20.05
2019-03-21T23:35:07.325Z,21.00
2019-03-21T23:37:39.058Z,19.60
2019-03-21T23:40:13.012Z,20.97
2019-03-21T23:42:44.716Z,19.80
2019-03-21T23:45:20.015Z,21.20
2019-03-21T23:47:51.526Z,19.85
2019-03-21T23:50:23.367Z,20.52
2019-03-21T23:52:55.034Z,23.40
2019-03-21T23:55:26.556Z,19.62
2019-03-21T23:57:58.111Z,20.97
